sensor_id;sensor_type;location;lat;lon;timestamp;P1;durP1;ratioP1;P2;durP2;ratioP2
8086;SDS011;4086;54.412;9.980;2023-07-13T00:02:10;7.73;;;3.93;;
8086;SDS011;4086;54.412;9.980;2023-07-13T00:04:36;6.10;;;4.07;;
8086;SDS011;4086;54.412;9.980;2023-07-13T00:07:03;7.07;;;4.20;;
8086;SDS011;4086;54.412;9.980;2023-07-13T00:09:30;7.00;;;4.00;;
8086;SDS011;4086;54.412;9.980;2023-07-13T00:11:58;8.00;;;4.40;;
8086;SDS011;4086;54.412;9.980;2023-07-13T00:14:24;8.13;;;4.43;;
8086;SDS011;4086;54.412;9.980;2023-07-13T00:16:52;8.47;;;4.00;;
8086;SDS011;4086;54.412;9.980;2023-07-13T00:19:18;6.40;;;3.87;;
8086;SDS011;4086;54.412;9.980;2023-07-13T00:21:45;5.43;;;3.93;;
8086;SDS011;4086;54.412;9.980;2023-07-13T00:24:13;8.30;;;3.93;;
8086;SDS011;4086;54.412;9.980;2023-07-13T00:26:41;5.70;;;4.00;;
8086;SDS011;4086;54.412;9.980;2023-07-13T00:29:10;6.70;;;4.27;;
8086;SDS011;4086;54.412;9.980;2023-07-13T00:31:37;7.27;;;4.00;;
8086;SDS011;4086;54.412;9.980;2023-07-13T00:34:03;8.77;;;4.30;;
8086;SDS011;4086;54.412;9.980;2023-07-13T00:36:30;6.23;;;4.00;;
8086;SDS011;4086;54.412;9.980;2023-07-13T00:38:57;6.47;;;4.00;;
8086;SDS011;4086;54.412;9.980;2023-07-13T00:41:23;7.97;;;4.10;;
8086;SDS011;4086;54.412;9.980;2023-07-13T00:43:50;7.70;;;4.37;;
8086;SDS011;4086;54.412;9.980;2023-07-13T00:46:25;4.73;;;3.83;;
8086;SDS011;4086;54.412;9.980;2023-07-13T00:48:53;4.13;;;3.50;;
8086;SDS011;4086;54.412;9.980;2023-07-13T00:51:22;6.50;;;4.17;;
8086;SDS011;4086;54.412;9.980;2023-07-13T00:53:51;4.80;;;4.00;;
8086;SDS011;4086;54.412;9.980;2023-07-13T00:56:19;8.73;;;4.97;;
8086;SDS011;4086;54.412;9.980;2023-07-13T00:58:45;7.40;;;4.60;;
8086;SDS011;4086;54.412;9.980;2023-07-13T01:01:12;5.73;;;5.10;;
8086;SDS011;4086;54.412;9.980;2023-07-13T01:03:40;8.63;;;5.23;;
8086;SDS011;4086;54.412;9.980;2023-07-13T01:06:06;6.23;;;4.67;;
8086;SDS011;4086;54.412;9.980;2023-07-13T01:08:33;5.30;;;4.40;;
8086;SDS011;4086;54.412;9.980;2023-07-13T01:11:00;7.63;;;4.63;;
8086;SDS011;4086;54.412;9.980;2023-07-13T01:13:26;6.93;;;5.23;;
8086;SDS011;4086;54.412;9.980;2023-07-13T01:15:53;7.70;;;5.27;;
8086;SDS011;4086;54.412;9.980;2023-07-13T01:18:22;7.13;;;5.27;;
8086;SDS011;4086;54.412;9.980;2023-07-13T01:20:52;8.37;;;5.80;;
8086;SDS011;4086;54.412;9.980;2023-07-13T01:23:19;8.43;;;5.23;;
8086;SDS011;4086;54.412;9.980;2023-07-13T01:25:46;7.83;;;6.10;;
8086;SDS011;4086;54.412;9.980;2023-07-13T01:28:12;6.83;;;5.77;;
8086;SDS011;4086;54.412;9.980;2023-07-13T01:30:39;7.80;;;5.90;;
8086;SDS011;4086;54.412;9.980;2023-07-13T01:33:06;9.80;;;5.97;;
8086;SDS011;4086;54.412;9.980;2023-07-13T01:35:32;7.53;;;5.63;;
8086;SDS011;4086;54.412;9.980;2023-07-13T01:38:00;7.73;;;6.60;;
8086;SDS011;4086;54.412;9.980;2023-07-13T01:40:27;11.37;;;6.50;;
8086;SDS011;4086;54.412;9.980;2023-07-13T01:42:54;8.53;;;6.60;;
8086;SDS011;4086;54.412;9.980;2023-07-13T01:45:21;7.47;;;5.60;;
8086;SDS011;4086;54.412;9.980;2023-07-13T01:47:47;7.97;;;5.07;;
8086;SDS011;4086;54.412;9.980;2023-07-13T01:50:13;7.03;;;5.13;;
8086;SDS011;4086;54.412;9.980;2023-07-13T01:52:40;9.43;;;5.40;;
8086;SDS011;4086;54.412;9.980;2023-07-13T01:55:08;6.50;;;4.90;;
8086;SDS011;4086;54.412;9.980;2023-07-13T01:57:34;7.60;;;4.80;;
8086;SDS011;4086;54.412;9.980;2023-07-13T02:00:02;7.50;;;5.20;;
8086;SDS011;4086;54.412;9.980;2023-07-13T02:02:29;7.83;;;5.40;;
8086;SDS011;4086;54.412;9.980;2023-07-13T02:04:56;5.37;;;4.87;;
8086;SDS011;4086;54.412;9.980;2023-07-13T02:07:22;7.10;;;5.13;;
8086;SDS011;4086;54.412;9.980;2023-07-13T02:09:48;7.67;;;5.47;;
8086;SDS011;4086;54.412;9.980;2023-07-13T02:12:16;9.83;;;5.70;;
8086;SDS011;4086;54.412;9.980;2023-07-13T02:14:42;8.17;;;5.43;;
8086;SDS011;4086;54.412;9.980;2023-07-13T02:17:09;6.60;;;5.00;;
8086;SDS011;4086;54.412;9.980;2023-07-13T02:19:36;5.37;;;4.83;;
8086;SDS011;4086;54.412;9.980;2023-07-13T02:22:02;9.03;;;5.33;;
8086;SDS011;4086;54.412;9.980;2023-07-13T02:24:29;11.87;;;6.47;;
8086;SDS011;4086;54.412;9.980;2023-07-13T02:26:55;11.07;;;5.83;;
8086;SDS011;4086;54.412;9.980;2023-07-13T02:29:23;8.93;;;6.00;;
8086;SDS011;4086;54.412;9.980;2023-07-13T02:31:49;9.20;;;6.03;;
8086;SDS011;4086;54.412;9.980;2023-07-13T02:34:16;5.90;;;5.40;;
8086;SDS011;4086;54.412;9.980;2023-07-13T02:36:42;7.37;;;5.33;;
8086;SDS011;4086;54.412;9.980;2023-07-13T02:39:08;7.40;;;5.73;;
8086;SDS011;4086;54.412;9.980;2023-07-13T02:41:35;6.77;;;6.00;;
8086;SDS011;4086;54.412;9.980;2023-07-13T02:44:01;8.47;;;4.90;;
8086;SDS011;4086;54.412;9.980;2023-07-13T02:46:30;6.17;;;5.03;;
8086;SDS011;4086;54.412;9.980;2023-07-13T02:48:56;6.67;;;5.13;;
8086;SDS011;4086;54.412;9.980;2023-07-13T02:51:23;9.67;;;5.50;;
8086;SDS011;4086;54.412;9.980;2023-07-13T02:53:49;8.93;;;5.77;;
8086;SDS011;4086;54.412;9.980;2023-07-13T02:56:16;7.07;;;5.70;;
8086;SDS011;4086;54.412;9.980;2023-07-13T02:58:42;7.13;;;5.50;;
8086;SDS011;4086;54.412;9.980;2023-07-13T03:01:09;9.93;;;6.00;;
8086;SDS011;4086;54.412;9.980;2023-07-13T03:03:38;8.20;;;6.10;;
8086;SDS011;4086;54.412;9.980;2023-07-13T03:06:04;8.73;;;6.77;;
8086;SDS011;4086;54.412;9.980;2023-07-13T03:08:33;9.03;;;6.10;;
8086;SDS011;4086;54.412;9.980;2023-07-13T03:11:00;7.93;;;6.73;;
8086;SDS011;4086;54.412;9.980;2023-07-13T03:13:26;9.93;;;7.07;;
8086;SDS011;4086;54.412;9.980;2023-07-13T03:15:53;9.03;;;7.57;;
8086;SDS011;4086;54.412;9.980;2023-07-13T03:18:19;8.90;;;7.50;;
8086;SDS011;4086;54.412;9.980;2023-07-13T03:20:47;9.47;;;7.13;;
8086;SDS011;4086;54.412;9.980;2023-07-13T03:23:16;9.00;;;8.10;;
8086;SDS011;4086;54.412;9.980;2023-07-13T03:25:42;8.83;;;7.93;;
8086;SDS011;4086;54.412;9.980;2023-07-13T03:28:09;11.03;;;8.47;;
8086;SDS011;4086;54.412;9.980;2023-07-13T03:30:36;9.57;;;8.57;;
8086;SDS011;4086;54.412;9.980;2023-07-13T03:33:02;9.60;;;8.70;;
8086;SDS011;4086;54.412;9.980;2023-07-13T03:35:29;10.63;;;8.50;;
8086;SDS011;4086;54.412;9.980;2023-07-13T03:37:56;12.10;;;8.80;;
8086;SDS011;4086;54.412;9.980;2023-07-13T03:40:24;11.33;;;9.27;;
8086;SDS011;4086;54.412;9.980;2023-07-13T03:42:51;12.30;;;9.30;;
8086;SDS011;4086;54.412;9.980;2023-07-13T03:45:17;11.47;;;9.67;;
8086;SDS011;4086;54.412;9.980;2023-07-13T03:47:44;10.67;;;9.67;;
8086;SDS011;4086;54.412;9.980;2023-07-13T03:50:11;9.70;;;8.73;;
8086;SDS011;4086;54.412;9.980;2023-07-13T03:52:40;9.87;;;8.83;;
8086;SDS011;4086;54.412;9.980;2023-07-13T03:55:08;9.67;;;8.70;;
8086;SDS011;4086;54.412;9.980;2023-07-13T03:57:35;9.70;;;8.13;;
8086;SDS011;4086;54.412;9.980;2023-07-13T04:00:01;9.63;;;8.83;;
8086;SDS011;4086;54.412;9.980;2023-07-13T04:02:28;9.70;;;8.77;;
8086;SDS011;4086;54.412;9.980;2023-07-13T04:04:54;9.43;;;8.53;;
8086;SDS011;4086;54.412;9.980;2023-07-13T04:07:20;12.37;;;8.77;;
8086;SDS011;4086;54.412;9.980;2023-07-13T04:09:47;9.07;;;8.27;;
8086;SDS011;4086;54.412;9.980;2023-07-13T04:12:14;9.97;;;8.97;;
8086;SDS011;4086;54.412;9.980;2023-07-13T04:14:41;9.73;;;8.73;;
8086;SDS011;4086;54.412;9.980;2023-07-13T04:17:07;9.73;;;8.53;;
8086;SDS011;4086;54.412;9.980;2023-07-13T04:19:34;13.40;;;9.70;;
8086;SDS011;4086;54.412;9.980;2023-07-13T04:22:00;10.13;;;9.13;;
8086;SDS011;4086;54.412;9.980;2023-07-13T04:24:26;9.40;;;8.50;;
8086;SDS011;4086;54.412;9.980;2023-07-13T04:26:53;9.17;;;7.73;;
8086;SDS011;4086;54.412;9.980;2023-07-13T04:29:20;9.33;;;8.40;;
8086;SDS011;4086;54.412;9.980;2023-07-13T04:31:47;9.50;;;8.60;;
8086;SDS011;4086;54.412;9.980;2023-07-13T04:34:13;9.40;;;8.13;;
8086;SDS011;4086;54.412;9.980;2023-07-13T04:36:39;9.93;;;8.93;;
8086;SDS011;4086;54.412;9.980;2023-07-13T04:39:06;8.53;;;7.67;;
8086;SDS011;4086;54.412;9.980;2023-07-13T04:41:33;9.03;;;7.93;;
8086;SDS011;4086;54.412;9.980;2023-07-13T04:44:00;8.57;;;7.70;;
8086;SDS011;4086;54.412;9.980;2023-07-13T04:46:29;9.93;;;8.23;;
8086;SDS011;4086;54.412;9.980;2023-07-13T04:48:55;8.17;;;7.30;;
8086;SDS011;4086;54.412;9.980;2023-07-13T04:51:23;11.87;;;7.60;;
8086;SDS011;4086;54.412;9.980;2023-07-13T04:53:49;8.47;;;7.10;;
8086;SDS011;4086;54.412;9.980;2023-07-13T04:56:16;9.93;;;7.53;;
8086;SDS011;4086;54.412;9.980;2023-07-13T04:58:42;8.87;;;6.73;;
8086;SDS011;4086;54.412;9.980;2023-07-13T05:01:08;9.33;;;6.53;;
8086;SDS011;4086;54.412;9.980;2023-07-13T05:03:36;8.00;;;6.37;;
8086;SDS011;4086;54.412;9.980;2023-07-13T05:06:03;10.93;;;6.53;;
8086;SDS011;4086;54.412;9.980;2023-07-13T05:08:30;6.60;;;5.50;;
8086;SDS011;4086;54.412;9.980;2023-07-13T05:10:59;7.10;;;6.07;;
8086;SDS011;4086;54.412;9.980;2023-07-13T05:13:25;9.00;;;5.60;;
8086;SDS011;4086;54.412;9.980;2023-07-13T05:15:55;7.90;;;5.50;;
8086;SDS011;4086;54.412;9.980;2023-07-13T05:18:22;7.07;;;5.40;;
8086;SDS011;4086;54.412;9.980;2023-07-13T05:20:56;7.73;;;5.10;;
8086;SDS011;4086;54.412;9.980;2023-07-13T05:23:24;9.17;;;5.33;;
8086;SDS011;4086;54.412;9.980;2023-07-13T05:25:50;8.37;;;5.07;;
8086;SDS011;4086;54.412;9.980;2023-07-13T05:28:16;6.87;;;4.57;;
8086;SDS011;4086;54.412;9.980;2023-07-13T05:30:44;7.87;;;5.03;;
8086;SDS011;4086;54.412;9.980;2023-07-13T05:33:11;11.60;;;5.67;;
8086;SDS011;4086;54.412;9.980;2023-07-13T05:35:38;9.10;;;5.43;;
8086;SDS011;4086;54.412;9.980;2023-07-13T05:38:06;8.50;;;4.80;;
8086;SDS011;4086;54.412;9.980;2023-07-13T05:40:32;11.00;;;5.73;;
8086;SDS011;4086;54.412;9.980;2023-07-13T05:42:59;8.93;;;5.20;;
8086;SDS011;4086;54.412;9.980;2023-07-13T05:45:25;8.23;;;4.43;;
8086;SDS011;4086;54.412;9.980;2023-07-13T05:47:52;6.60;;;4.83;;
8086;SDS011;4086;54.412;9.980;2023-07-13T05:50:19;7.57;;;4.50;;
8086;SDS011;4086;54.412;9.980;2023-07-13T05:52:46;8.80;;;5.17;;
8086;SDS011;4086;54.412;9.980;2023-07-13T05:55:14;9.60;;;5.03;;
8086;SDS011;4086;54.412;9.980;2023-07-13T05:57:40;7.47;;;4.43;;
8086;SDS011;4086;54.412;9.980;2023-07-13T06:00:07;9.20;;;4.80;;
8086;SDS011;4086;54.412;9.980;2023-07-13T06:02:34;8.17;;;4.47;;
8086;SDS011;4086;54.412;9.980;2023-07-13T06:05:01;9.60;;;4.47;;
8086;SDS011;4086;54.412;9.980;2023-07-13T06:07:27;5.53;;;4.40;;
8086;SDS011;4086;54.412;9.980;2023-07-13T06:09:54;8.47;;;4.40;;
8086;SDS011;4086;54.412;9.980;2023-07-13T06:12:22;9.53;;;4.50;;
8086;SDS011;4086;54.412;9.980;2023-07-13T06:14:48;8.90;;;4.60;;
8086;SDS011;4086;54.412;9.980;2023-07-13T06:17:15;7.57;;;3.90;;
8086;SDS011;4086;54.412;9.980;2023-07-13T06:19:41;6.07;;;4.23;;
8086;SDS011;4086;54.412;9.980;2023-07-13T06:22:07;9.83;;;4.30;;
8086;SDS011;4086;54.412;9.980;2023-07-13T06:24:34;7.73;;;4.20;;
8086;SDS011;4086;54.412;9.980;2023-07-13T06:27:00;8.87;;;4.23;;
8086;SDS011;4086;54.412;9.980;2023-07-13T06:29:28;6.33;;;4.37;;
8086;SDS011;4086;54.412;9.980;2023-07-13T06:31:55;9.43;;;4.40;;
8086;SDS011;4086;54.412;9.980;2023-07-13T06:34:21;7.37;;;4.40;;
8086;SDS011;4086;54.412;9.980;2023-07-13T06:36:47;8.83;;;4.63;;
8086;SDS011;4086;54.412;9.980;2023-07-13T06:39:14;7.90;;;4.80;;
8086;SDS011;4086;54.412;9.980;2023-07-13T06:41:40;9.33;;;4.53;;
8086;SDS011;4086;54.412;9.980;2023-07-13T06:44:07;9.33;;;4.47;;
8086;SDS011;4086;54.412;9.980;2023-07-13T06:46:35;7.17;;;4.37;;
8086;SDS011;4086;54.412;9.980;2023-07-13T06:49:01;10.10;;;4.80;;
8086;SDS011;4086;54.412;9.980;2023-07-13T06:51:27;8.43;;;4.10;;
8086;SDS011;4086;54.412;9.980;2023-07-13T06:53:54;7.50;;;4.13;;
8086;SDS011;4086;54.412;9.980;2023-07-13T06:56:21;9.93;;;4.47;;
8086;SDS011;4086;54.412;9.980;2023-07-13T06:58:47;6.33;;;3.87;;
8086;SDS011;4086;54.412;9.980;2023-07-13T07:01:13;10.03;;;4.67;;
8086;SDS011;4086;54.412;9.980;2023-07-13T07:03:41;9.27;;;4.60;;
8086;SDS011;4086;54.412;9.980;2023-07-13T07:06:11;5.30;;;3.90;;
8086;SDS011;4086;54.412;9.980;2023-07-13T07:08:39;9.33;;;4.00;;
8086;SDS011;4086;54.412;9.980;2023-07-13T07:11:08;9.10;;;4.20;;
8086;SDS011;4086;54.412;9.980;2023-07-13T07:13:35;9.73;;;4.20;;
8086;SDS011;4086;54.412;9.980;2023-07-13T07:16:01;6.53;;;4.10;;
8086;SDS011;4086;54.412;9.980;2023-07-13T07:18:28;7.93;;;4.30;;
8086;SDS011;4086;54.412;9.980;2023-07-13T07:20:55;10.70;;;4.50;;
8086;SDS011;4086;54.412;9.980;2023-07-13T07:23:22;7.33;;;4.10;;
8086;SDS011;4086;54.412;9.980;2023-07-13T07:25:48;7.83;;;4.07;;
8086;SDS011;4086;54.412;9.980;2023-07-13T07:28:16;4.67;;;3.60;;
8086;SDS011;4086;54.412;9.980;2023-07-13T07:30:44;8.77;;;3.67;;
8086;SDS011;4086;54.412;9.980;2023-07-13T07:33:10;6.30;;;3.67;;
8086;SDS011;4086;54.412;9.980;2023-07-13T07:35:37;9.27;;;4.10;;
8086;SDS011;4086;54.412;9.980;2023-07-13T07:38:05;6.67;;;4.20;;
8086;SDS011;4086;54.412;9.980;2023-07-13T07:40:36;9.10;;;4.47;;
8086;SDS011;4086;54.412;9.980;2023-07-13T07:43:03;6.03;;;3.97;;
8086;SDS011;4086;54.412;9.980;2023-07-13T07:45:29;9.87;;;4.87;;
8086;SDS011;4086;54.412;9.980;2023-07-13T07:47:55;8.20;;;4.40;;
8086;SDS011;4086;54.412;9.980;2023-07-13T07:50:23;8.27;;;4.67;;
8086;SDS011;4086;54.412;9.980;2023-07-13T07:52:50;13.93;;;6.20;;
8086;SDS011;4086;54.412;9.980;2023-07-13T07:55:18;10.73;;;5.67;;
8086;SDS011;4086;54.412;9.980;2023-07-13T07:57:44;9.60;;;5.33;;
8086;SDS011;4086;54.412;9.980;2023-07-13T08:00:11;10.67;;;5.40;;
8086;SDS011;4086;54.412;9.980;2023-07-13T08:02:38;7.20;;;4.20;;
8086;SDS011;4086;54.412;9.980;2023-07-13T08:05:06;4.77;;;3.03;;
8086;SDS011;4086;54.412;9.980;2023-07-13T08:07:33;5.00;;;3.13;;
8086;SDS011;4086;54.412;9.980;2023-07-13T08:09:59;6.43;;;3.60;;
8086;SDS011;4086;54.412;9.980;2023-07-13T08:12:27;6.17;;;3.23;;
8086;SDS011;4086;54.412;9.980;2023-07-13T08:14:54;5.53;;;3.43;;
8086;SDS011;4086;54.412;9.980;2023-07-13T08:17:22;4.50;;;3.73;;
8086;SDS011;4086;54.412;9.980;2023-07-13T08:19:49;9.67;;;4.77;;
8086;SDS011;4086;54.412;9.980;2023-07-13T08:22:16;5.10;;;3.90;;
8086;SDS011;4086;54.412;9.980;2023-07-13T08:24:43;8.23;;;4.47;;
8086;SDS011;4086;54.412;9.980;2023-07-13T08:27:09;8.30;;;4.90;;
8086;SDS011;4086;54.412;9.980;2023-07-13T08:29:38;6.73;;;4.80;;
8086;SDS011;4086;54.412;9.980;2023-07-13T08:32:05;6.63;;;4.70;;
8086;SDS011;4086;54.412;9.980;2023-07-13T08:34:34;7.87;;;4.97;;
8086;SDS011;4086;54.412;9.980;2023-07-13T08:37:00;6.37;;;4.43;;
8086;SDS011;4086;54.412;9.980;2023-07-13T08:39:28;9.83;;;5.40;;
8086;SDS011;4086;54.412;9.980;2023-07-13T08:41:56;9.60;;;5.23;;
8086;SDS011;4086;54.412;9.980;2023-07-13T08:44:27;7.40;;;4.67;;
8086;SDS011;4086;54.412;9.980;2023-07-13T08:47:10;5.20;;;4.70;;
8086;SDS011;4086;54.412;9.980;2023-07-13T08:49:38;6.47;;;4.70;;
8086;SDS011;4086;54.412;9.980;2023-07-13T08:52:05;7.40;;;4.33;;
8086;SDS011;4086;54.412;9.980;2023-07-13T08:54:36;7.77;;;5.03;;
8086;SDS011;4086;54.412;9.980;2023-07-13T08:57:09;5.87;;;4.27;;
8086;SDS011;4086;54.412;9.980;2023-07-13T08:59:37;6.03;;;4.50;;
8086;SDS011;4086;54.412;9.980;2023-07-13T09:02:08;4.77;;;4.27;;
8086;SDS011;4086;54.412;9.980;2023-07-13T09:04:49;5.23;;;4.43;;
8086;SDS011;4086;54.412;9.980;2023-07-13T09:07:20;7.37;;;4.93;;
8086;SDS011;4086;54.412;9.980;2023-07-13T09:09:57;7.43;;;4.70;;
8086;SDS011;4086;54.412;9.980;2023-07-13T09:12:33;5.90;;;4.63;;
8086;SDS011;4086;54.412;9.980;2023-07-13T09:15:03;5.27;;;4.57;;
8086;SDS011;4086;54.412;9.980;2023-07-13T09:17:33;5.57;;;4.87;;
8086;SDS011;4086;54.412;9.980;2023-07-13T09:20:02;8.07;;;5.20;;
8086;SDS011;4086;54.412;9.980;2023-07-13T09:22:33;8.97;;;5.87;;
8086;SDS011;4086;54.412;9.980;2023-07-13T09:25:02;6.50;;;5.17;;
8086;SDS011;4086;54.412;9.980;2023-07-13T09:27:33;10.67;;;6.27;;
8086;SDS011;4086;54.412;9.980;2023-07-13T09:30:07;10.03;;;5.20;;
8086;SDS011;4086;54.412;9.980;2023-07-13T09:32:47;8.20;;;5.60;;
8086;SDS011;4086;54.412;9.980;2023-07-13T09:35:18;6.83;;;5.73;;
8086;SDS011;4086;54.412;9.980;2023-07-13T09:37:45;6.33;;;4.80;;
8086;SDS011;4086;54.412;9.980;2023-07-13T09:40:21;8.63;;;4.93;;
8086;SDS011;4086;54.412;9.980;2023-07-13T09:42:51;9.63;;;4.60;;
8086;SDS011;4086;54.412;9.980;2023-07-13T09:45:26;7.10;;;4.90;;
8086;SDS011;4086;54.412;9.980;2023-07-13T09:47:59;7.33;;;4.67;;
8086;SDS011;4086;54.412;9.980;2023-07-13T09:50:30;8.43;;;4.90;;
8086;SDS011;4086;54.412;9.980;2023-07-13T09:52:56;8.80;;;5.67;;
8086;SDS011;4086;54.412;9.980;2023-07-13T09:55:24;7.10;;;5.20;;
8086;SDS011;4086;54.412;9.980;2023-07-13T09:57:52;8.70;;;4.53;;
8086;SDS011;4086;54.412;9.980;2023-07-13T10:00:20;6.83;;;3.70;;
8086;SDS011;4086;54.412;9.980;2023-07-13T10:02:49;6.93;;;4.17;;
8086;SDS011;4086;54.412;9.980;2023-07-13T10:05:25;6.73;;;4.00;;
8086;SDS011;4086;54.412;9.980;2023-07-13T10:07:52;8.43;;;4.13;;
8086;SDS011;4086;54.412;9.980;2023-07-13T10:10:22;5.67;;;3.93;;
8086;SDS011;4086;54.412;9.980;2023-07-13T10:12:49;7.03;;;3.77;;
8086;SDS011;4086;54.412;9.980;2023-07-13T10:15:17;5.80;;;3.50;;
8086;SDS011;4086;54.412;9.980;2023-07-13T10:17:46;6.33;;;3.10;;
8086;SDS011;4086;54.412;9.980;2023-07-13T10:20:14;4.87;;;2.30;;
8086;SDS011;4086;54.412;9.980;2023-07-13T10:22:44;2.80;;;2.10;;
8086;SDS011;4086;54.412;9.980;2023-07-13T10:25:16;3.57;;;2.20;;
8086;SDS011;4086;54.412;9.980;2023-07-13T10:27:44;2.97;;;2.00;;
8086;SDS011;4086;54.412;9.980;2023-07-13T10:30:13;3.80;;;2.23;;
8086;SDS011;4086;54.412;9.980;2023-07-13T10:32:44;3.93;;;1.80;;
8086;SDS011;4086;54.412;9.980;2023-07-13T10:35:11;3.47;;;2.10;;
8086;SDS011;4086;54.412;9.980;2023-07-13T10:37:43;5.30;;;2.10;;
8086;SDS011;4086;54.412;9.980;2023-07-13T10:40:12;2.10;;;1.83;;
8086;SDS011;4086;54.412;9.980;2023-07-13T10:42:43;3.80;;;2.07;;
8086;SDS011;4086;54.412;9.980;2023-07-13T10:45:13;4.73;;;1.87;;
8086;SDS011;4086;54.412;9.980;2023-07-13T10:47:41;2.67;;;1.80;;
8086;SDS011;4086;54.412;9.980;2023-07-13T10:50:08;3.77;;;1.90;;
8086;SDS011;4086;54.412;9.980;2023-07-13T10:52:42;4.23;;;1.97;;
8086;SDS011;4086;54.412;9.980;2023-07-13T10:58:01;3.60;;;1.77;;
8086;SDS011;4086;54.412;9.980;2023-07-13T11:00:30;4.37;;;1.77;;
8086;SDS011;4086;54.412;9.980;2023-07-13T11:02:58;6.23;;;2.00;;
8086;SDS011;4086;54.412;9.980;2023-07-13T11:05:28;3.97;;;1.50;;
8086;SDS011;4086;54.412;9.980;2023-07-13T11:07:56;3.70;;;1.70;;
8086;SDS011;4086;54.412;9.980;2023-07-13T11:10:49;2.83;;;1.70;;
8086;SDS011;4086;54.412;9.980;2023-07-13T11:16:34;3.30;;;1.80;;
8086;SDS011;4086;54.412;9.980;2023-07-13T11:19:24;3.20;;;1.17;;
8086;SDS011;4086;54.412;9.980;2023-07-13T11:22:25;2.53;;;1.37;;
8086;SDS011;4086;54.412;9.980;2023-07-13T11:25:21;3.13;;;1.53;;
8086;SDS011;4086;54.412;9.980;2023-07-13T11:28:04;4.63;;;1.43;;
8086;SDS011;4086;54.412;9.980;2023-07-13T11:30:35;2.83;;;1.23;;
8086;SDS011;4086;54.412;9.980;2023-07-13T11:33:10;2.43;;;1.30;;
8086;SDS011;4086;54.412;9.980;2023-07-13T11:35:41;3.57;;;1.70;;
8086;SDS011;4086;54.412;9.980;2023-07-13T11:38:17;3.40;;;1.50;;
8086;SDS011;4086;54.412;9.980;2023-07-13T11:40:45;1.87;;;1.20;;
8086;SDS011;4086;54.412;9.980;2023-07-13T11:43:13;1.47;;;1.30;;
8086;SDS011;4086;54.412;9.980;2023-07-13T11:45:40;3.63;;;1.40;;
8086;SDS011;4086;54.412;9.980;2023-07-13T11:48:17;1.77;;;1.33;;
8086;SDS011;4086;54.412;9.980;2023-07-13T11:50:49;2.97;;;1.30;;
8086;SDS011;4086;54.412;9.980;2023-07-13T11:53:18;2.87;;;1.17;;
8086;SDS011;4086;54.412;9.980;2023-07-13T11:55:47;2.30;;;1.27;;
8086;SDS011;4086;54.412;9.980;2023-07-13T11:58:14;2.10;;;1.10;;
8086;SDS011;4086;54.412;9.980;2023-07-13T12:00:43;3.15;;;1.10;;
8086;SDS011;4086;54.412;9.980;2023-07-13T12:03:10;2.23;;;1.00;;
8086;SDS011;4086;54.412;9.980;2023-07-13T12:05:37;2.25;;;1.40;;
8086;SDS011;4086;54.412;9.980;2023-07-13T12:08:08;3.35;;;1.60;;
8086;SDS011;4086;54.412;9.980;2023-07-13T12:10:38;3.50;;;1.48;;
8086;SDS011;4086;54.412;9.980;2023-07-13T12:13:05;3.30;;;1.60;;
8086;SDS011;4086;54.412;9.980;2023-07-13T12:15:35;3.08;;;1.50;;
8086;SDS011;4086;54.412;9.980;2023-07-13T12:18:09;3.13;;;1.40;;
8086;SDS011;4086;54.412;9.980;2023-07-13T12:20:38;2.72;;;1.30;;
8086;SDS011;4086;54.412;9.980;2023-07-13T12:23:05;1.85;;;1.13;;
8086;SDS011;4086;54.412;9.980;2023-07-13T12:25:31;2.78;;;1.42;;
8086;SDS011;4086;54.412;9.980;2023-07-13T12:27:59;3.08;;;1.42;;
8086;SDS011;4086;54.412;9.980;2023-07-13T12:30:47;3.03;;;1.60;;
8086;SDS011;4086;54.412;9.980;2023-07-13T12:33:14;4.10;;;1.60;;
8086;SDS011;4086;54.412;9.980;2023-07-13T12:35:44;4.33;;;1.53;;
8086;SDS011;4086;54.412;9.980;2023-07-13T12:38:13;3.63;;;1.30;;
8086;SDS011;4086;54.412;9.980;2023-07-13T12:40:40;2.77;;;1.50;;
8086;SDS011;4086;54.412;9.980;2023-07-13T12:43:11;2.43;;;1.30;;
8086;SDS011;4086;54.412;9.980;2023-07-13T12:45:38;3.83;;;1.40;;
8086;SDS011;4086;54.412;9.980;2023-07-13T12:48:10;3.10;;;1.57;;
8086;SDS011;4086;54.412;9.980;2023-07-13T12:50:40;3.57;;;1.70;;
8086;SDS011;4086;54.412;9.980;2023-07-13T12:53:09;3.33;;;1.50;;
8086;SDS011;4086;54.412;9.980;2023-07-13T12:55:40;3.43;;;1.57;;
8086;SDS011;4086;54.412;9.980;2023-07-13T12:58:09;2.47;;;1.50;;
8086;SDS011;4086;54.412;9.980;2023-07-13T13:00:47;2.87;;;1.60;;
8086;SDS011;4086;54.412;9.980;2023-07-13T13:03:28;2.50;;;1.40;;
8086;SDS011;4086;54.412;9.980;2023-07-13T13:05:58;2.77;;;1.53;;
8086;SDS011;4086;54.412;9.980;2023-07-13T13:08:29;4.47;;;1.63;;
8086;SDS011;4086;54.412;9.980;2023-07-13T13:10:56;4.60;;;1.60;;
8086;SDS011;4086;54.412;9.980;2023-07-13T13:13:24;4.47;;;1.90;;
8086;SDS011;4086;54.412;9.980;2023-07-13T13:15:50;3.70;;;1.60;;
8086;SDS011;4086;54.412;9.980;2023-07-13T13:18:17;3.50;;;1.80;;
8086;SDS011;4086;54.412;9.980;2023-07-13T13:20:45;3.50;;;1.70;;
8086;SDS011;4086;54.412;9.980;2023-07-13T13:23:12;3.07;;;1.87;;
8086;SDS011;4086;54.412;9.980;2023-07-13T13:25:42;2.67;;;1.67;;
8086;SDS011;4086;54.412;9.980;2023-07-13T13:28:12;5.00;;;2.17;;
8086;SDS011;4086;54.412;9.980;2023-07-13T13:30:42;4.20;;;2.00;;
8086;SDS011;4086;54.412;9.980;2023-07-13T13:33:09;6.43;;;2.20;;
8086;SDS011;4086;54.412;9.980;2023-07-13T13:35:37;5.23;;;2.10;;
8086;SDS011;4086;54.412;9.980;2023-07-13T13:38:04;7.20;;;2.00;;
8086;SDS011;4086;54.412;9.980;2023-07-13T13:40:34;3.40;;;1.90;;
8086;SDS011;4086;54.412;9.980;2023-07-13T13:43:01;5.83;;;2.10;;
8086;SDS011;4086;54.412;9.980;2023-07-13T13:45:27;3.53;;;2.00;;
8086;SDS011;4086;54.412;9.980;2023-07-13T13:47:55;4.03;;;2.00;;
8086;SDS011;4086;54.412;9.980;2023-07-13T13:50:21;5.33;;;1.80;;
8086;SDS011;4086;54.412;9.980;2023-07-13T13:52:49;3.30;;;1.70;;
8086;SDS011;4086;54.412;9.980;2023-07-13T13:55:17;3.23;;;1.77;;
8086;SDS011;4086;54.412;9.980;2023-07-13T13:57:44;3.97;;;1.80;;
8086;SDS011;4086;54.412;9.980;2023-07-13T14:00:11;3.87;;;1.80;;
8086;SDS011;4086;54.412;9.980;2023-07-13T14:02:39;4.97;;;1.83;;
8086;SDS011;4086;54.412;9.980;2023-07-13T14:05:10;3.43;;;1.90;;
8086;SDS011;4086;54.412;9.980;2023-07-13T14:07:38;5.30;;;1.90;;
8086;SDS011;4086;54.412;9.980;2023-07-13T14:10:10;3.77;;;1.60;;
8086;SDS011;4086;54.412;9.980;2023-07-13T14:12:37;2.37;;;1.63;;
8086;SDS011;4086;54.412;9.980;2023-07-13T14:15:04;4.57;;;1.70;;
8086;SDS011;4086;54.412;9.980;2023-07-13T14:17:31;4.17;;;1.60;;
8086;SDS011;4086;54.412;9.980;2023-07-13T14:19:58;4.13;;;1.60;;
8086;SDS011;4086;54.412;9.980;2023-07-13T14:22:26;3.13;;;1.60;;
8086;SDS011;4086;54.412;9.980;2023-07-13T14:24:53;4.80;;;1.60;;
8086;SDS011;4086;54.412;9.980;2023-07-13T14:27:20;2.70;;;1.70;;
8086;SDS011;4086;54.412;9.980;2023-07-13T14:29:46;4.63;;;1.90;;
8086;SDS011;4086;54.412;9.980;2023-07-13T14:32:13;3.23;;;1.63;;
8086;SDS011;4086;54.412;9.980;2023-07-13T14:34:39;5.80;;;1.97;;
8086;SDS011;4086;54.412;9.980;2023-07-13T14:37:08;5.43;;;1.70;;
8086;SDS011;4086;54.412;9.980;2023-07-13T14:39:40;4.10;;;1.50;;
8086;SDS011;4086;54.412;9.980;2023-07-13T14:42:08;4.70;;;1.73;;
8086;SDS011;4086;54.412;9.980;2023-07-13T14:44:35;6.00;;;2.00;;
8086;SDS011;4086;54.412;9.980;2023-07-13T14:47:02;2.40;;;1.60;;
8086;SDS011;4086;54.412;9.980;2023-07-13T14:49:30;3.37;;;1.97;;
8086;SDS011;4086;54.412;9.980;2023-07-13T14:51:59;4.43;;;1.70;;
8086;SDS011;4086;54.412;9.980;2023-07-13T14:54:26;4.67;;;2.07;;
8086;SDS011;4086;54.412;9.980;2023-07-13T14:56:54;4.87;;;1.90;;
8086;SDS011;4086;54.412;9.980;2023-07-13T14:59:20;6.85;;;1.92;;
8086;SDS011;4086;54.412;9.980;2023-07-13T15:01:48;4.72;;;1.90;;
8086;SDS011;4086;54.412;9.980;2023-07-13T15:04:15;3.35;;;1.40;;
8086;SDS011;4086;54.412;9.980;2023-07-13T15:06:52;3.55;;;1.65;;
8086;SDS011;4086;54.412;9.980;2023-07-13T15:09:20;5.77;;;1.77;;
8086;SDS011;4086;54.412;9.980;2023-07-13T15:11:46;3.38;;;1.77;;
8086;SDS011;4086;54.412;9.980;2023-07-13T15:14:14;3.50;;;1.73;;
8086;SDS011;4086;54.412;9.980;2023-07-13T15:16:41;3.77;;;2.00;;
8086;SDS011;4086;54.412;9.980;2023-07-13T15:19:08;4.53;;;1.80;;
8086;SDS011;4086;54.412;9.980;2023-07-13T15:21:35;3.75;;;1.50;;
8086;SDS011;4086;54.412;9.980;2023-07-13T15:24:02;3.50;;;1.77;;
8086;SDS011;4086;54.412;9.980;2023-07-13T15:26:28;2.80;;;1.40;;
8086;SDS011;4086;54.412;9.980;2023-07-13T15:28:55;3.97;;;1.70;;